Ferrelview, Missouri
Current Conditions -  °F | °C
As of 5:53 AM on Monday 22 Dec 2014 (Local Time) from KMCI Reporting Station
Drizzle Drizzle  
Wind Chill: 33°   Ceiling: 700
Heat Index: 41°   Visibility: 3mi
Dew Point: 40°   Wind: 15mph
Humidity: 96%   Direction: 150°SSE
Pressure: 29.61"   Gusts: NA
Location:  39.3419°N, 94.7209°W
Report Text: KMCI 221153Z 15013KT 3SM -DZ BR OVC007 05/04 A2961 RMK AO2 SLP028 P0001 60003 70003 T00500044 10056 20050 56020
Loading
Personal Weather Stations






























Interactive Weather Map New forecast layout! Learn more

10-Day Weather Forecast

Advertisements
Track Severe Weather on mobile